Terminal Aerodrome Forecast
Issued by NWS Jackson, MS

Home | Current Version | Previous Version | Text Only | Print | Product List | Glossary On
Versions: 1 2 3 4 5 6 7 8 9 10 11 12 13
000
FTUS44 KJAN 191700
TAFMEI
TAF
KMEI 191730Z 1918/2018 09007KT P6SM SCT050
     FM191930 09007KT P6SM VCSH BKN060
     FM200000 VRB03KT P6SM FEW060
     FM200930 VRB03KT 5SM BR SCT020
     FM201330 09006KT P6SM FEW030 SCT250=

USA.gov is the U.S. government's official web portal to all federal, state and local government web resources and services.